sensor_id;sensor_type;location;lat;lon;timestamp;pressure;altitude;pressure_sealevel;temperature;humidity
56928;BME280;60850;52.502;13.426;2022-09-17T00:01:00;99830.63;;;12.02;100.00
56928;BME280;60850;52.502;13.426;2022-09-17T00:03:31;99841.19;;;12.05;100.00
56928;BME280;60850;52.502;13.426;2022-09-17T00:06:00;99840.25;;;12.06;100.00
56928;BME280;60850;52.502;13.426;2022-09-17T00:08:27;99837.56;;;12.06;100.00
56928;BME280;60850;52.502;13.426;2022-09-17T00:10:56;99843.69;;;12.08;100.00
56928;BME280;60850;52.502;13.426;2022-09-17T00:13:23;99849.03;;;12.08;100.00
56928;BME280;60850;52.502;13.426;2022-09-17T00:15:51;99848.97;;;12.10;100.00
56928;BME280;60850;52.502;13.426;2022-09-17T00:18:18;99850.69;;;12.11;100.00
56928;BME280;60850;52.502;13.426;2022-09-17T00:20:46;99859.44;;;12.15;100.00
56928;BME280;60850;52.502;13.426;2022-09-17T00:23:13;99862.13;;;12.15;100.00
56928;BME280;60850;52.502;13.426;2022-09-17T00:25:43;99856.00;;;12.13;100.00
56928;BME280;60850;52.502;13.426;2022-09-17T00:28:13;99870.22;;;12.13;100.00
56928;BME280;60850;52.502;13.426;2022-09-17T00:30:44;99864.00;;;12.13;100.00
56928;BME280;60850;52.502;13.426;2022-09-17T00:33:13;99861.19;;;12.16;100.00
56928;BME280;60850;52.502;13.426;2022-09-17T00:35:41;99868.16;;;12.18;100.00
56928;BME280;60850;52.502;13.426;2022-09-17T00:38:08;99869.03;;;12.19;100.00
56928;BME280;60850;52.502;13.426;2022-09-17T00:40:48;99869.94;;;12.19;100.00
56928;BME280;60850;52.502;13.426;2022-09-17T00:43:36;99863.69;;;12.19;100.00
56928;BME280;60850;52.502;13.426;2022-09-17T00:46:09;99870.63;;;12.23;100.00
56928;BME280;60850;52.502;13.426;2022-09-17T00:48:38;99871.50;;;12.23;100.00
56928;BME280;60850;52.502;13.426;2022-09-17T00:51:08;99872.38;;;12.24;100.00
56928;BME280;60850;52.502;13.426;2022-09-17T00:53:39;99875.81;;;12.26;100.00
56928;BME280;60850;52.502;13.426;2022-09-17T00:56:10;99881.31;;;12.23;100.00
56928;BME280;60850;52.502;13.426;2022-09-17T00:58:43;99879.59;;;12.22;100.00
56928;BME280;60850;52.502;13.426;2022-09-17T01:01:10;99882.28;;;12.22;100.00
56928;BME280;60850;52.502;13.426;2022-09-17T01:03:38;99881.31;;;12.23;100.00
56928;BME280;60850;52.502;13.426;2022-09-17T01:06:13;99880.31;;;12.25;100.00
56928;BME280;60850;52.502;13.426;2022-09-17T01:08:49;99889.19;;;12.26;100.00
56928;BME280;60850;52.502;13.426;2022-09-17T01:11:33;99893.03;;;12.20;100.00
56928;BME280;60850;52.502;13.426;2022-09-17T01:14:17;99893.75;;;12.24;100.00
56928;BME280;60850;52.502;13.426;2022-09-17T01:16:52;99895.63;;;12.22;100.00
56928;BME280;60850;52.502;13.426;2022-09-17T01:20:00;99902.00;;;12.19;100.00
56928;BME280;60850;52.502;13.426;2022-09-17T01:22:33;99907.34;;;12.19;100.00
56928;BME280;60850;52.502;13.426;2022-09-17T01:25:20;99909.13;;;12.19;100.00
56928;BME280;60850;52.502;13.426;2022-09-17T01:28:22;99917.13;;;12.19;100.00
56928;BME280;60850;52.502;13.426;2022-09-17T01:31:20;99905.47;;;12.21;100.00
56928;BME280;60850;52.502;13.426;2022-09-17T01:33:55;99908.06;;;12.23;100.00
56928;BME280;60850;52.502;13.426;2022-09-17T01:36:36;99913.25;;;12.26;100.00
56928;BME280;60850;52.502;13.426;2022-09-17T01:39:11;99918.59;;;12.26;100.00
56928;BME280;60850;52.502;13.426;2022-09-17T01:41:49;99917.72;;;12.25;100.00
56928;BME280;60850;52.502;13.426;2022-09-17T01:44:22;99914.06;;;12.28;100.00
56928;BME280;60850;52.502;13.426;2022-09-17T01:47:00;99919.41;;;12.28;100.00
56928;BME280;60850;52.502;13.426;2022-09-17T01:49:30;99924.66;;;12.29;100.00
56928;BME280;60850;52.502;13.426;2022-09-17T01:52:00;99919.25;;;12.31;100.00
56928;BME280;60850;52.502;13.426;2022-09-17T01:54:30;99916.44;;;12.34;100.00
56928;BME280;60850;52.502;13.426;2022-09-17T01:57:03;99919.81;;;12.37;100.00
56928;BME280;60850;52.502;13.426;2022-09-17T01:59:34;99923.38;;;12.38;100.00
56928;BME280;60850;52.502;13.426;2022-09-17T02:02:07;99920.56;;;12.41;100.00
56928;BME280;60850;52.502;13.426;2022-09-17T02:04:41;99924.97;;;12.42;100.00
56928;BME280;60850;52.502;13.426;2022-09-17T02:07:13;99932.16;;;12.40;100.00
56928;BME280;60850;52.502;13.426;2022-09-17T02:09:47;99931.19;;;12.43;100.00
56928;BME280;60850;52.502;13.426;2022-09-17T02:12:23;99933.94;;;12.41;100.00
56928;BME280;60850;52.502;13.426;2022-09-17T02:14:57;99930.31;;;12.42;100.00
56928;BME280;60850;52.502;13.426;2022-09-17T02:17:29;99937.50;;;12.40;100.00
56928;BME280;60850;52.502;13.426;2022-09-17T02:19:59;99946.44;;;12.41;100.00
56928;BME280;60850;52.502;13.426;2022-09-17T02:22:31;99940.16;;;12.42;100.00
56928;BME280;60850;52.502;13.426;2022-09-17T02:25:04;99938.34;;;12.42;100.00
56928;BME280;60850;52.502;13.426;2022-09-17T02:27:45;99942.56;;;12.46;100.00
56928;BME280;60850;52.502;13.426;2022-09-17T02:30:14;99931.19;;;12.43;100.00
56928;BME280;60850;52.502;13.426;2022-09-17T02:32:43;99939.13;;;12.44;100.00
56928;BME280;60850;52.502;13.426;2022-09-17T02:35:11;99945.34;;;12.45;100.00
56928;BME280;60850;52.502;13.426;2022-09-17T02:37:39;99936.38;;;12.46;100.00
56928;BME280;60850;52.502;13.426;2022-09-17T02:40:07;99931.97;;;12.45;100.00
56928;BME280;60850;52.502;13.426;2022-09-17T02:42:50;99933.94;;;12.41;100.00
56928;BME280;60850;52.502;13.426;2022-09-17T02:45:32;99934.78;;;12.42;100.00
56928;BME280;60850;52.502;13.426;2022-09-17T02:48:15;99933.06;;;12.41;100.00
56928;BME280;60850;52.502;13.426;2022-09-17T02:50:53;99933.00;;;12.42;100.00
56928;BME280;60850;52.502;13.426;2022-09-17T02:53:33;99933.84;;;12.43;100.00
56928;BME280;60850;52.502;13.426;2022-09-17T02:56:09;99932.75;;;12.47;100.00
56928;BME280;60850;52.502;13.426;2022-09-17T02:58:45;99933.63;;;12.47;100.00
56928;BME280;60850;52.502;13.426;2022-09-17T03:01:18;99933.69;;;12.46;100.00
56928;BME280;60850;52.502;13.426;2022-09-17T03:03:47;99933.78;;;12.44;100.00
56928;BME280;60850;52.502;13.426;2022-09-17T03:06:17;99936.38;;;12.46;100.00
56928;BME280;60850;52.502;13.426;2022-09-17T03:08:44;99933.69;;;12.46;100.00
56928;BME280;60850;52.502;13.426;2022-09-17T03:11:12;99931.88;;;12.46;100.00
56928;BME280;60850;52.502;13.426;2022-09-17T03:13:40;99928.34;;;12.46;100.00
56928;BME280;60850;52.502;13.426;2022-09-17T03:16:07;99926.53;;;12.46;100.00
56928;BME280;60850;52.502;13.426;2022-09-17T03:18:34;99921.28;;;12.45;100.00
56928;BME280;60850;52.502;13.426;2022-09-17T03:21:03;99928.25;;;12.47;100.00
56928;BME280;60850;52.502;13.426;2022-09-17T03:23:30;99931.84;;;12.48;100.00
56928;BME280;60850;52.502;13.426;2022-09-17T03:25:58;99935.38;;;12.48;100.00
56928;BME280;60850;52.502;13.426;2022-09-17T03:28:25;99932.63;;;12.50;100.00
56928;BME280;60850;52.502;13.426;2022-09-17T03:30:53;99924.53;;;12.51;100.00
56928;BME280;60850;52.502;13.426;2022-09-17T03:33:20;99929.88;;;12.51;100.00
56928;BME280;60850;52.502;13.426;2022-09-17T03:35:47;99931.59;;;12.52;100.00
56928;BME280;60850;52.502;13.426;2022-09-17T03:38:16;99927.13;;;12.53;100.00
56928;BME280;60850;52.502;13.426;2022-09-17T03:40:43;99927.94;;;12.55;100.00
56928;BME280;60850;52.502;13.426;2022-09-17T03:43:10;99932.34;;;12.56;100.00
56928;BME280;60850;52.502;13.426;2022-09-17T03:45:37;99930.53;;;12.56;100.00
56928;BME280;60850;52.502;13.426;2022-09-17T03:48:04;99938.56;;;12.56;100.00
56928;BME280;60850;52.502;13.426;2022-09-17T03:50:31;99942.00;;;12.58;100.00
56928;BME280;60850;52.502;13.426;2022-09-17T03:52:58;99934.16;;;12.55;100.00
56928;BME280;60850;52.502;13.426;2022-09-17T03:55:26;99930.44;;;12.58;100.00
56928;BME280;60850;52.502;13.426;2022-09-17T03:57:54;99939.25;;;12.60;100.00
56928;BME280;60850;52.502;13.426;2022-09-17T04:00:21;99950.75;;;12.62;100.00
56928;BME280;60850;52.502;13.426;2022-09-17T04:02:48;99947.16;;;12.63;100.00
56928;BME280;60850;52.502;13.426;2022-09-17T04:05:16;99947.16;;;12.63;100.00
56928;BME280;60850;52.502;13.426;2022-09-17T04:07:43;99946.19;;;12.64;100.00
56928;BME280;60850;52.502;13.426;2022-09-17T04:10:10;99941.72;;;12.64;100.00
56928;BME280;60850;52.502;13.426;2022-09-17T04:12:38;99948.97;;;12.62;100.00
56928;BME280;60850;52.502;13.426;2022-09-17T04:15:06;99956.16;;;12.60;100.00
56928;BME280;60850;52.502;13.426;2022-09-17T04:17:33;99949.91;;;12.61;100.00
56928;BME280;60850;52.502;13.426;2022-09-17T04:20:01;99944.59;;;12.60;100.00
56928;BME280;60850;52.502;13.426;2022-09-17T04:22:29;99954.44;;;12.59;100.00
56928;BME280;60850;52.502;13.426;2022-09-17T04:24:56;99951.75;;;12.59;100.00
56928;BME280;60850;52.502;13.426;2022-09-17T04:27:23;99944.56;;;12.61;100.00
56928;BME280;60850;52.502;13.426;2022-09-17T04:29:52;99942.66;;;12.63;100.00
56928;BME280;60850;52.502;13.426;2022-09-17T04:32:19;99956.03;;;12.63;100.00
56928;BME280;60850;52.502;13.426;2022-09-17T04:34:46;99952.41;;;12.64;100.00
56928;BME280;60850;52.502;13.426;2022-09-17T04:37:13;99946.19;;;12.64;100.00
56928;BME280;60850;52.502;13.426;2022-09-17T04:39:40;99950.59;;;12.65;100.00
56928;BME280;60850;52.502;13.426;2022-09-17T04:42:07;99954.16;;;12.65;100.00
56928;BME280;60850;52.502;13.426;2022-09-17T04:44:34;99956.81;;;12.65;100.00
56928;BME280;60850;52.502;13.426;2022-09-17T04:47:02;99955.88;;;12.67;100.00
56928;BME280;60850;52.502;13.426;2022-09-17T04:49:29;99955.00;;;12.66;100.00
56928;BME280;60850;52.502;13.426;2022-09-17T04:51:57;99948.78;;;12.65;100.00
56928;BME280;60850;52.502;13.426;2022-09-17T04:54:24;99949.66;;;12.66;100.00
56928;BME280;60850;52.502;13.426;2022-09-17T04:56:51;99951.38;;;12.67;100.00
56928;BME280;60850;52.502;13.426;2022-09-17T04:59:18;99951.34;;;12.69;100.00
56928;BME280;60850;52.502;13.426;2022-09-17T05:01:46;99956.69;;;12.69;100.00
56928;BME280;60850;52.502;13.426;2022-09-17T05:04:15;99958.34;;;12.71;100.00
56928;BME280;60850;52.502;13.426;2022-09-17T05:06:42;99960.16;;;12.71;100.00
56928;BME280;60850;52.502;13.426;2022-09-17T05:09:09;99966.28;;;12.73;100.00
56928;BME280;60850;52.502;13.426;2022-09-17T05:11:36;99961.72;;;12.75;100.00
56928;BME280;60850;52.502;13.426;2022-09-17T05:14:03;99963.47;;;12.76;100.00
56928;BME280;60850;52.502;13.426;2022-09-17T05:16:30;99966.16;;;12.76;100.00
56928;BME280;60850;52.502;13.426;2022-09-17T05:18:57;99967.88;;;12.77;100.00
56928;BME280;60850;52.502;13.426;2022-09-17T05:21:26;99975.91;;;12.77;100.00
56928;BME280;60850;52.502;13.426;2022-09-17T05:23:53;99974.97;;;12.78;100.00
56928;BME280;60850;52.502;13.426;2022-09-17T05:26:20;99973.94;;;12.80;100.00
56928;BME280;60850;52.502;13.426;2022-09-17T05:28:47;99975.53;;;12.84;100.00
56928;BME280;60850;52.502;13.426;2022-09-17T05:31:14;99985.22;;;12.87;100.00
56928;BME280;60850;52.502;13.426;2022-09-17T05:33:41;99975.28;;;12.89;100.00
56928;BME280;60850;52.502;13.426;2022-09-17T05:36:08;99975.94;;;12.94;100.00
56928;BME280;60850;52.502;13.426;2022-09-17T05:38:36;99973.06;;;12.99;100.00
56928;BME280;60850;52.502;13.426;2022-09-17T05:41:04;99977.19;;;13.06;100.00
56928;BME280;60850;52.502;13.426;2022-09-17T05:43:32;99987.72;;;13.09;100.00
56928;BME280;60850;52.502;13.426;2022-09-17T05:46:03;99983.97;;;13.13;100.00
56928;BME280;60850;52.502;13.426;2022-09-17T05:48:30;99983.66;;;13.19;100.00
56928;BME280;60850;52.502;13.426;2022-09-17T05:50:57;99991.47;;;13.24;100.00
56928;BME280;60850;52.502;13.426;2022-09-17T05:53:24;99982.44;;;13.26;100.00
56928;BME280;60850;52.502;13.426;2022-09-17T05:55:56;99988.66;;;13.27;100.00
56928;BME280;60850;52.502;13.426;2022-09-17T05:58:24;99994.88;;;13.27;100.00
56928;BME280;60850;52.502;13.426;2022-09-17T06:00:51;99993.06;;;13.28;100.00
56928;BME280;60850;52.502;13.426;2022-09-17T06:03:19;99994.72;;;13.30;100.00
56928;BME280;60850;52.502;13.426;2022-09-17T06:05:52;99991.97;;;13.32;100.00
56928;BME280;60850;52.502;13.426;2022-09-17T06:08:19;99994.72;;;13.30;100.00
56928;BME280;60850;52.502;13.426;2022-09-17T06:10:46;99996.53;;;13.30;100.00
56928;BME280;60850;52.502;13.426;2022-09-17T06:13:15;99996.69;;;13.27;100.00
56928;BME280;60850;52.502;13.426;2022-09-17T06:15:48;99998.44;;;13.28;100.00
56928;BME280;60850;52.502;13.426;2022-09-17T06:18:16;100002.91;;;13.27;100.00
56928;BME280;60850;52.502;13.426;2022-09-17T06:20:51;100003.69;;;13.29;100.00
56928;BME280;60850;52.502;13.426;2022-09-17T06:23:18;100007.41;;;13.27;100.00
56928;BME280;60850;52.502;13.426;2022-09-17T06:25:50;100013.63;;;13.27;100.00
56928;BME280;60850;52.502;13.426;2022-09-17T06:28:19;100007.16;;;13.31;100.00
56928;BME280;60850;52.502;13.426;2022-09-17T06:30:46;99995.75;;;13.28;100.00
56928;BME280;60850;52.502;13.426;2022-09-17T06:33:13;100017.00;;;13.31;100.00
56928;BME280;60850;52.502;13.426;2022-09-17T06:35:41;100016.69;;;13.37;100.00
56928;BME280;60850;52.502;13.426;2022-09-17T06:38:08;100015.13;;;13.33;100.00
56928;BME280;60850;52.502;13.426;2022-09-17T06:40:35;100010.66;;;13.33;100.00
56928;BME280;60850;52.502;13.426;2022-09-17T06:43:02;100016.56;;;13.40;100.00
56928;BME280;60850;52.502;13.426;2022-09-17T06:45:31;100015.00;;;13.70;100.00
56928;BME280;60850;52.502;13.426;2022-09-17T06:48:02;100008.59;;;14.08;100.00
56928;BME280;60850;52.502;13.426;2022-09-17T06:50:30;100019.78;;;14.16;100.00
56928;BME280;60850;52.502;13.426;2022-09-17T06:52:57;100016.09;;;14.18;100.00
56928;BME280;60850;52.502;13.426;2022-09-17T06:55:24;100016.44;;;14.12;100.00
56928;BME280;60850;52.502;13.426;2022-09-17T06:57:51;100019.75;;;14.00;100.00
56928;BME280;60850;52.502;13.426;2022-09-17T07:00:18;100017.78;;;13.86;100.00
56928;BME280;60850;52.502;13.426;2022-09-17T07:02:55;100020.72;;;13.82;100.00
56928;BME280;60850;52.502;13.426;2022-09-17T07:05:23;100019.03;;;13.79;100.00
56928;BME280;60850;52.502;13.426;2022-09-17T07:07:50;100021.00;;;13.76;100.00
56928;BME280;60850;52.502;13.426;2022-09-17T07:10:19;100026.38;;;13.76;100.00
56928;BME280;60850;52.502;13.426;2022-09-17T07:12:48;100017.69;;;13.70;100.00
56928;BME280;60850;52.502;13.426;2022-09-17T07:15:18;100015.31;;;13.64;100.00
56928;BME280;60850;52.502;13.426;2022-09-17T07:17:47;100021.72;;;13.62;100.00
56928;BME280;60850;52.502;13.426;2022-09-17T07:20:16;100018.78;;;13.66;100.00
56928;BME280;60850;52.502;13.426;2022-09-17T07:22:43;100018.88;;;13.82;100.00
56928;BME280;60850;52.502;13.426;2022-09-17T07:25:10;100021.50;;;13.84;100.00
56928;BME280;60850;52.502;13.426;2022-09-17T07:27:38;100017.38;;;13.94;100.00
56928;BME280;60850;52.502;13.426;2022-09-17T07:30:09;100024.47;;;14.12;100.00
56928;BME280;60850;52.502;13.426;2022-09-17T07:32:38;100030.19;;;14.22;100.00
56928;BME280;60850;52.502;13.426;2022-09-17T07:35:05;100014.75;;;14.27;100.00
56928;BME280;60850;52.502;13.426;2022-09-17T07:37:34;100021.81;;;14.45;100.00
56928;BME280;60850;52.502;13.426;2022-09-17T07:40:01;100021.25;;;14.56;100.00
56928;BME280;60850;52.502;13.426;2022-09-17T07:42:28;100017.22;;;14.80;100.00
56928;BME280;60850;52.502;13.426;2022-09-17T07:44:57;100014.69;;;14.77;100.00
56928;BME280;60850;52.502;13.426;2022-09-17T07:47:24;100015.94;;;14.88;100.00
56928;BME280;60850;52.502;13.426;2022-09-17T07:49:51;100024.09;;;15.02;100.00
56928;BME280;60850;52.502;13.426;2022-09-17T07:52:18;100010.47;;;15.05;100.00
56928;BME280;60850;52.502;13.426;2022-09-17T07:54:47;100021.28;;;15.19;100.00
56928;BME280;60850;52.502;13.426;2022-09-17T07:57:14;100023.38;;;15.30;100.00
56928;BME280;60850;52.502;13.426;2022-09-17T07:59:41;100016.09;;;15.32;100.00
56928;BME280;60850;52.502;13.426;2022-09-17T08:02:11;100018.69;;;15.33;100.00
56928;BME280;60850;52.502;13.426;2022-09-17T08:04:40;100015.34;;;16.20;100.00
56928;BME280;60850;52.502;13.426;2022-09-17T08:07:10;100018.53;;;16.27;100.00
56928;BME280;60850;52.502;13.426;2022-09-17T08:09:38;100010.50;;;15.97;100.00
56928;BME280;60850;52.502;13.426;2022-09-17T08:12:07;100008.75;;;15.81;100.00
56928;BME280;60850;52.502;13.426;2022-09-17T08:14:34;100016.22;;;15.76;100.00
56928;BME280;60850;52.502;13.426;2022-09-17T08:17:01;100008.44;;;15.72;100.00
56928;BME280;60850;52.502;13.426;2022-09-17T08:19:30;100006.72;;;15.85;100.00
56928;BME280;60850;52.502;13.426;2022-09-17T08:21:57;100006.78;;;16.28;100.00
56928;BME280;60850;52.502;13.426;2022-09-17T08:24:24;100010.31;;;16.72;100.00
56928;BME280;60850;52.502;13.426;2022-09-17T08:26:54;100008.47;;;18.97;100.00
56928;BME280;60850;52.502;13.426;2022-09-17T08:29:22;99999.75;;;21.25;94.50
56928;BME280;60850;52.502;13.426;2022-09-17T08:31:52;100002.88;;;21.64;81.62
56928;BME280;60850;52.502;13.426;2022-09-17T08:34:19;100002.94;;;21.19;82.23
56928;BME280;60850;52.502;13.426;2022-09-17T08:36:46;100006.16;;;22.93;66.97
56928;BME280;60850;52.502;13.426;2022-09-17T08:39:14;100006.78;;;21.71;71.48
56928;BME280;60850;52.502;13.426;2022-09-17T08:41:51;99994.25;;;20.93;77.71
56928;BME280;60850;52.502;13.426;2022-09-17T08:44:24;100007.94;;;20.58;82.55
56928;BME280;60850;52.502;13.426;2022-09-17T08:46:58;100002.25;;;20.50;80.50
56928;BME280;60850;52.502;13.426;2022-09-17T08:49:33;100010.53;;;20.13;84.22
56928;BME280;60850;52.502;13.426;2022-09-17T08:55:22;100013.69;;;19.48;82.96
56928;BME280;60850;52.502;13.426;2022-09-17T08:57:59;100018.34;;;18.85;88.88
56928;BME280;60850;52.502;13.426;2022-09-17T09:00:36;100012.50;;;18.53;90.78
56928;BME280;60850;52.502;13.426;2022-09-17T09:03:23;100019.59;;;18.03;93.64
56928;BME280;60850;52.502;13.426;2022-09-17T09:05:54;100026.50;;;17.95;94.95
56928;BME280;60850;52.502;13.426;2022-09-17T09:08:27;100033.25;;;17.61;97.19
56928;BME280;60850;52.502;13.426;2022-09-17T09:10:57;100034.63;;;17.26;98.47
56928;BME280;60850;52.502;13.426;2022-09-17T09:13:27;100031.19;;;17.24;100.00
56928;BME280;60850;52.502;13.426;2022-09-17T09:15:59;100031.13;;;17.39;99.98
56928;BME280;60850;52.502;13.426;2022-09-17T09:18:29;100037.19;;;17.69;99.16
56928;BME280;60850;52.502;13.426;2022-09-17T09:21:03;100025.44;;;18.10;96.45
56928;BME280;60850;52.502;13.426;2022-09-17T09:23:44;100044.25;;;18.37;91.34
56928;BME280;60850;52.502;13.426;2022-09-17T09:26:16;100032.06;;;18.82;88.58
56928;BME280;60850;52.502;13.426;2022-09-17T09:28:52;100038.25;;;19.08;86.44
56928;BME280;60850;52.502;13.426;2022-09-17T09:31:42;100043.63;;;18.84;85.88
56928;BME280;60850;52.502;13.426;2022-09-17T09:34:13;100040.78;;;18.86;85.75
56928;BME280;60850;52.502;13.426;2022-09-17T09:36:41;100039.75;;;18.76;85.15
56928;BME280;60850;52.502;13.426;2022-09-17T09:39:14;100048.44;;;19.05;85.09
56928;BME280;60850;52.502;13.426;2022-09-17T09:41:48;100048.72;;;19.26;82.47
56928;BME280;60850;52.502;13.426;2022-09-17T09:44:19;100040.75;;;19.48;80.87
56928;BME280;60850;52.502;13.426;2022-09-17T09:46:56;100046.34;;;19.45;82.88
56928;BME280;60850;52.502;13.426;2022-09-17T09:49:35;100064.50;;;19.19;83.23
56928;BME280;60850;52.502;13.426;2022-09-17T09:52:18;100056.56;;;18.66;87.74
56928;BME280;60850;52.502;13.426;2022-09-17T09:54:58;100062.16;;;18.13;93.21
56928;BME280;60850;52.502;13.426;2022-09-17T09:57:37;100063.00;;;17.73;97.44
56928;BME280;60850;52.502;13.426;2022-09-17T10:00:26;100067.19;;;17.50;100.00
56928;BME280;60850;52.502;13.426;2022-09-17T10:02:59;100066.72;;;17.44;100.00
56928;BME280;60850;52.502;13.426;2022-09-17T10:05:28;100065.59;;;17.48;100.00
56928;BME280;60850;52.502;13.426;2022-09-17T10:07:59;100066.47;;;17.61;100.00
56928;BME280;60850;52.502;13.426;2022-09-17T10:10:26;100072.00;;;17.87;100.00
56928;BME280;60850;52.502;13.426;2022-09-17T10:13:05;100063.31;;;18.08;99.52
56928;BME280;60850;52.502;13.426;2022-09-17T10:15:33;100064.53;;;18.43;97.32
56928;BME280;60850;52.502;13.426;2022-09-17T10:18:17;100056.88;;;18.87;93.74
56928;BME280;60850;52.502;13.426;2022-09-17T10:20:55;100062.53;;;19.34;90.43
56928;BME280;60850;52.502;13.426;2022-09-17T10:23:24;100059.53;;;19.49;87.59
56928;BME280;60850;52.502;13.426;2022-09-17T10:25:52;100069.38;;;19.51;85.34
56928;BME280;60850;52.502;13.426;2022-09-17T10:28:41;100069.94;;;19.06;82.70
56928;BME280;60850;52.502;13.426;2022-09-17T10:31:10;100063.91;;;18.64;81.52
56928;BME280;60850;52.502;13.426;2022-09-17T10:33:50;100068.31;;;18.65;79.27
56928;BME280;60850;52.502;13.426;2022-09-17T10:36:37;100067.88;;;18.46;80.97
56928;BME280;60850;52.502;13.426;2022-09-17T10:39:18;100082.00;;;18.11;84.42
56928;BME280;60850;52.502;13.426;2022-09-17T10:41:52;100089.34;;;17.55;92.48
56928;BME280;60850;52.502;13.426;2022-09-17T10:44:21;100078.22;;;17.19;99.45
56928;BME280;60850;52.502;13.426;2022-09-17T10:46:49;100073.06;;;17.01;100.00
56928;BME280;60850;52.502;13.426;2022-09-17T10:49:36;100075.06;;;17.12;100.00
56928;BME280;60850;52.502;13.426;2022-09-17T10:52:09;100081.84;;;17.32;100.00
56928;BME280;60850;52.502;13.426;2022-09-17T10:55:03;100080.56;;;17.52;100.00
56928;BME280;60850;52.502;13.426;2022-09-17T10:58:03;100080.72;;;17.77;97.53
56928;BME280;60850;52.502;13.426;2022-09-17T11:00:53;100085.69;;;17.83;96.93
56928;BME280;60850;52.502;13.426;2022-09-17T11:03:51;100086.69;;;17.95;95.78
56928;BME280;60850;52.502;13.426;2022-09-17T11:06:43;100080.69;;;18.04;95.03
56928;BME280;60850;52.502;13.426;2022-09-17T11:09:20;100093.41;;;18.02;96.19
56928;BME280;60850;52.502;13.426;2022-09-17T11:12:03;100089.50;;;17.94;96.32
56928;BME280;60850;52.502;13.426;2022-09-17T11:14:48;100085.44;;;18.14;95.51
56928;BME280;60850;52.502;13.426;2022-09-17T11:17:42;100086.59;;;18.49;94.78
56928;BME280;60850;52.502;13.426;2022-09-17T11:20:23;100080.53;;;18.58;90.72
56928;BME280;60850;52.502;13.426;2022-09-17T11:23:03;100075.56;;;18.65;89.38
56928;BME280;60850;52.502;13.426;2022-09-17T11:25:42;100077.97;;;18.70;90.12
56928;BME280;60850;52.502;13.426;2022-09-17T11:28:24;100076.41;;;18.65;89.79
56928;BME280;60850;52.502;13.426;2022-09-17T11:31:06;100069.50;;;18.36;90.38
56928;BME280;60850;52.502;13.426;2022-09-17T11:33:52;100060.94;;;18.17;84.69
56928;BME280;60850;52.502;13.426;2022-09-17T11:36:28;100060.91;;;18.04;85.24
56928;BME280;60850;52.502;13.426;2022-09-17T11:39:08;100062.25;;;17.71;83.08
56928;BME280;60850;52.502;13.426;2022-09-17T11:41:41;100074.47;;;17.63;85.66
56928;BME280;60850;52.502;13.426;2022-09-17T11:44:13;100078.38;;;17.86;84.18
56928;BME280;60850;52.502;13.426;2022-09-17T11:46:45;100077.63;;;17.96;82.22
56928;BME280;60850;52.502;13.426;2022-09-17T11:49:29;100069.38;;;18.25;82.28
56928;BME280;60850;52.502;13.426;2022-09-17T11:52:04;100070.81;;;18.43;82.06
56928;BME280;60850;52.502;13.426;2022-09-17T11:54:39;100066.41;;;18.67;79.98
56928;BME280;60850;52.502;13.426;2022-09-17T11:57:12;100063.91;;;18.64;77.60
56928;BME280;60850;52.502;13.426;2022-09-17T11:59:44;100056.56;;;18.66;74.16
56928;BME280;60850;52.502;13.426;2022-09-17T12:02:25;100059.19;;;18.68;72.59
56928;BME280;60850;52.502;13.426;2022-09-17T12:05:00;100060.06;;;18.69;70.89
56928;BME280;60850;52.502;13.426;2022-09-17T12:07:35;100051.84;;;18.70;70.71
56928;BME280;60850;52.502;13.426;2022-09-17T12:10:33;100055.50;;;18.82;71.33
56928;BME280;60850;52.502;13.426;2022-09-17T12:13:09;100053.44;;;18.73;72.55
56928;BME280;60850;52.502;13.426;2022-09-17T12:15:43;100052.81;;;18.69;73.71
56928;BME280;60850;52.502;13.426;2022-09-17T12:18:19;100063.50;;;18.71;73.42
56928;BME280;60850;52.502;13.426;2022-09-17T12:20:54;100055.16;;;18.48;72.63
56928;BME280;60850;52.502;13.426;2022-09-17T12:23:31;100063.41;;;18.07;73.65
56928;BME280;60850;52.502;13.426;2022-09-17T12:26:10;100073.41;;;17.92;76.39
56928;BME280;60850;52.502;13.426;2022-09-17T12:28:50;100065.97;;;17.96;76.27
56928;BME280;60850;52.502;13.426;2022-09-17T12:31:24;100060.38;;;17.99;76.29
56928;BME280;60850;52.502;13.426;2022-09-17T12:34:00;100063.00;;;17.73;80.53
56928;BME280;60850;52.502;13.426;2022-09-17T12:36:41;100050.84;;;17.39;83.13
56928;BME280;60850;52.502;13.426;2022-09-17T12:42:35;100040.63;;;17.17;85.74
56928;BME280;60850;52.502;13.426;2022-09-17T12:45:20;100041.66;;;17.29;85.07
56928;BME280;60850;52.502;13.426;2022-09-17T12:48:11;100044.59;;;17.39;83.50
56928;BME280;60850;52.502;13.426;2022-09-17T12:50:50;100039.78;;;17.44;82.05
56928;BME280;60850;52.502;13.426;2022-09-17T12:53:26;100025.22;;;17.46;82.81
56928;BME280;60850;52.502;13.426;2022-09-17T12:56:02;100021.63;;;17.33;83.48
56928;BME280;60850;52.502;13.426;2022-09-17T12:58:46;100029.50;;;17.36;84.77
56928;BME280;60850;52.502;13.426;2022-09-17T13:01:21;100030.16;;;17.40;84.73
56928;BME280;60850;52.502;13.426;2022-09-17T13:03:53;100029.13;;;17.42;85.99
56928;BME280;60850;52.502;13.426;2022-09-17T13:09:47;100030.13;;;17.27;86.84
56928;BME280;60850;52.502;13.426;2022-09-17T13:12:25;100035.91;;;17.21;85.70
56928;BME280;60850;52.502;13.426;2022-09-17T13:15:34;100029.44;;;17.23;72.68